createdAt,value
2017-12-16T00:00:33.496Z,3.20
2017-12-16T00:03:00.965Z,3.19
2017-12-16T00:05:28.376Z,3.17
2017-12-16T00:07:55.784Z,3.15
2017-12-16T00:10:23.219Z,3.14
2017-12-16T00:12:50.631Z,3.15
2017-12-16T00:15:18.130Z,3.13
2017-12-16T00:17:45.590Z,3.12
2017-12-16T00:20:13.036Z,3.08
2017-12-16T00:22:40.448Z,3.05
2017-12-16T00:25:07.892Z,3.05
2017-12-16T00:27:35.422Z,3.04
2017-12-16T00:30:02.873Z,3.06
2017-12-16T00:32:30.303Z,3.04
2017-12-16T00:34:57.716Z,3.14
2017-12-16T00:37:25.229Z,3.15
2017-12-16T00:39:52.655Z,3.13
2017-12-16T00:42:20.068Z,3.15
2017-12-16T00:44:47.503Z,3.11
2017-12-16T00:47:15.058Z,3.07
2017-12-16T00:49:42.462Z,2.97
2017-12-16T00:52:09.884Z,2.98
2017-12-16T00:54:37.343Z,2.94
2017-12-16T00:57:04.791Z,2.88
2017-12-16T00:59:32.205Z,2.90
2017-12-16T01:01:59.636Z,2.96
2017-12-16T01:04:27.073Z,2.90
2017-12-16T01:06:54.478Z,2.83
2017-12-16T01:09:21.919Z,2.82
2017-12-16T01:11:49.323Z,3.01
2017-12-16T01:14:16.731Z,3.01
2017-12-16T01:16:44.163Z,2.95
2017-12-16T01:19:11.568Z,2.88
2017-12-16T01:21:39.056Z,2.86
2017-12-16T01:24:06.512Z,2.85
2017-12-16T01:26:33.960Z,2.87
2017-12-16T01:29:01.456Z,2.89
2017-12-16T01:31:28.879Z,2.95
2017-12-16T01:34:08.219Z,2.97
2017-12-16T01:36:47.453Z,2.98
2017-12-16T01:39:14.908Z,3.02
2017-12-16T01:41:42.324Z,2.98
2017-12-16T01:44:09.756Z,2.93
2017-12-16T01:46:37.187Z,2.87
2017-12-16T01:49:04.598Z,2.81
2017-12-16T01:51:32.104Z,2.75
2017-12-16T01:53:59.541Z,2.69
2017-12-16T01:56:26.943Z,2.63
2017-12-16T01:58:54.347Z,2.66
2017-12-16T02:01:21.782Z,2.64
2017-12-16T02:03:49.195Z,2.63
2017-12-16T02:06:16.631Z,2.68
2017-12-16T02:08:44.193Z,2.72
2017-12-16T02:11:11.599Z,2.75
2017-12-16T02:13:39.003Z,2.74
2017-12-16T02:16:06.456Z,2.73
2017-12-16T02:18:33.868Z,2.75
2017-12-16T02:21:01.336Z,2.72
2017-12-16T02:23:28.831Z,2.73
2017-12-16T02:25:56.231Z,2.73
2017-12-16T02:28:23.694Z,2.76
2017-12-16T02:30:51.298Z,2.77
2017-12-16T02:33:18.767Z,2.78
2017-12-16T02:35:46.203Z,2.80
2017-12-16T02:38:13.608Z,2.81
2017-12-16T02:40:41.022Z,2.78
2017-12-16T02:43:08.488Z,2.80
2017-12-16T02:45:35.894Z,2.77
2017-12-16T02:48:03.304Z,2.77
2017-12-16T02:50:30.741Z,2.76
2017-12-16T02:52:58.139Z,2.75
2017-12-16T02:55:25.659Z,2.75
2017-12-16T02:57:53.096Z,2.77
2017-12-16T03:00:20.495Z,2.77
2017-12-16T03:02:47.905Z,2.80
2017-12-16T03:05:15.340Z,2.82
2017-12-16T03:07:42.751Z,2.84
2017-12-16T03:10:10.208Z,2.84
2017-12-16T03:12:37.663Z,2.84
2017-12-16T03:15:05.120Z,2.83
2017-12-16T03:17:32.528Z,2.81
2017-12-16T03:20:00.024Z,2.79
2017-12-16T03:22:27.423Z,2.77
2017-12-16T03:24:54.856Z,2.78
2017-12-16T03:27:22.291Z,2.79
2017-12-16T03:29:49.751Z,2.81
2017-12-16T03:32:17.216Z,2.80
2017-12-16T03:34:44.931Z,2.81
2017-12-16T03:37:12.341Z,2.82
2017-12-16T03:39:39.767Z,2.80
2017-12-16T03:42:07.176Z,2.82
2017-12-16T03:44:34.706Z,2.81
2017-12-16T03:47:02.139Z,2.78
2017-12-16T03:49:29.561Z,2.81
2017-12-16T03:51:56.987Z,2.80
2017-12-16T03:54:24.440Z,2.78
2017-12-16T03:56:51.849Z,2.79
2017-12-16T03:59:19.267Z,2.81
2017-12-16T04:01:46.687Z,2.79
2017-12-16T04:04:14.102Z,2.80
2017-12-16T04:06:41.611Z,2.82
2017-12-16T04:09:09.059Z,2.83
2017-12-16T04:11:36.459Z,2.82
2017-12-16T04:14:03.889Z,2.82
2017-12-16T04:16:31.292Z,2.83
2017-12-16T04:18:58.695Z,2.82
2017-12-16T04:21:26.151Z,2.83
2017-12-16T04:23:53.556Z,2.82
2017-12-16T04:26:20.963Z,2.83
2017-12-16T04:28:48.391Z,2.81
2017-12-16T04:31:15.791Z,2.85
2017-12-16T04:33:43.322Z,2.84
2017-12-16T04:36:10.765Z,2.81
2017-12-16T04:38:38.246Z,2.80
2017-12-16T04:41:05.655Z,2.79
2017-12-16T04:43:33.151Z,2.78
2017-12-16T04:46:00.622Z,2.78
2017-12-16T04:48:28.061Z,2.74
2017-12-16T04:50:55.463Z,2.73
2017-12-16T04:53:22.894Z,2.73
2017-12-16T04:55:50.320Z,2.74
2017-12-16T04:58:17.728Z,2.75
2017-12-16T05:00:45.161Z,2.76
2017-12-16T05:03:12.623Z,2.72
2017-12-16T05:05:40.028Z,2.71
2017-12-16T05:08:07.491Z,2.73
2017-12-16T05:10:34.992Z,2.73
2017-12-16T05:13:02.420Z,2.74
2017-12-16T05:15:29.827Z,2.74
2017-12-16T05:17:57.262Z,2.76
2017-12-16T05:20:24.654Z,2.74
2017-12-16T05:22:52.064Z,2.73
2017-12-16T05:25:19.513Z,2.72
2017-12-16T05:27:46.981Z,2.74
2017-12-16T05:30:14.530Z,2.76
2017-12-16T05:32:41.947Z,2.79
2017-12-16T05:35:09.356Z,2.81
2017-12-16T05:37:36.812Z,2.79
2017-12-16T05:40:04.256Z,2.82
2017-12-16T05:42:31.656Z,2.83
2017-12-16T05:44:59.089Z,2.83
2017-12-16T05:47:26.533Z,2.87
2017-12-16T05:49:53.938Z,2.86
2017-12-16T05:52:21.343Z,2.84
2017-12-16T05:54:48.800Z,2.86
2017-12-16T05:57:16.207Z,2.85
2017-12-16T05:59:43.728Z,2.83
2017-12-16T06:02:11.175Z,2.81
2017-12-16T06:04:38.620Z,2.82
2017-12-16T06:07:06.027Z,2.86
2017-12-16T06:09:33.450Z,2.89
2017-12-16T06:12:00.856Z,2.89
2017-12-16T06:14:28.313Z,2.89
2017-12-16T06:16:55.745Z,2.90
2017-12-16T06:19:23.170Z,2.91
2017-12-16T06:21:50.579Z,2.93
2017-12-16T06:24:18.007Z,2.93
2017-12-16T06:26:45.408Z,2.88
2017-12-16T06:29:12.903Z,2.85
2017-12-16T06:31:40.345Z,2.84
2017-12-16T06:34:07.745Z,2.84
2017-12-16T06:36:35.153Z,2.84
2017-12-16T06:39:02.571Z,2.85
2017-12-16T06:41:30.173Z,2.91
2017-12-16T06:43:57.567Z,2.93
2017-12-16T06:46:24.971Z,2.97
2017-12-16T06:48:52.416Z,2.99
2017-12-16T06:51:19.818Z,2.97
2017-12-16T06:53:47.233Z,2.97
2017-12-16T06:56:14.678Z,2.96
2017-12-16T06:58:42.089Z,2.98
2017-12-16T07:01:09.516Z,2.98
2017-12-16T07:03:36.967Z,2.97
2017-12-16T07:06:04.371Z,2.98
2017-12-16T07:08:31.788Z,2.97
2017-12-16T07:10:59.223Z,2.97
2017-12-16T07:13:26.622Z,2.97
2017-12-16T07:15:54.056Z,2.97
2017-12-16T07:18:21.543Z,2.97
2017-12-16T07:20:48.947Z,2.97
2017-12-16T07:23:16.448Z,2.95
2017-12-16T07:25:43.886Z,2.90
2017-12-16T07:28:11.302Z,2.93
2017-12-16T07:30:38.703Z,2.92
2017-12-16T07:33:06.148Z,2.92
2017-12-16T07:35:33.638Z,2.94
2017-12-16T07:38:01.051Z,2.96
2017-12-16T07:40:28.483Z,2.99
2017-12-16T07:42:55.893Z,3.03
2017-12-16T07:45:23.300Z,3.03
2017-12-16T07:47:50.801Z,2.98
2017-12-16T07:50:18.199Z,2.96
2017-12-16T07:52:45.634Z,2.92
2017-12-16T07:55:13.183Z,2.89
2017-12-16T07:57:40.632Z,2.88
2017-12-16T08:00:08.102Z,2.87
2017-12-16T08:02:35.523Z,2.88
2017-12-16T08:05:02.939Z,2.88
2017-12-16T08:07:30.366Z,2.87
2017-12-16T08:09:57.821Z,2.86
2017-12-16T08:12:25.248Z,2.82
2017-12-16T08:14:52.675Z,2.81
2017-12-16T08:17:20.083Z,2.81
2017-12-16T08:19:47.492Z,2.83
2017-12-16T08:22:14.932Z,2.87
2017-12-16T08:24:42.341Z,2.95
2017-12-16T08:27:09.748Z,3.04
2017-12-16T08:29:37.166Z,3.19
2017-12-16T08:32:04.571Z,3.35
2017-12-16T08:34:31.988Z,3.51
2017-12-16T08:36:59.412Z,3.66
2017-12-16T08:39:26.823Z,3.77
2017-12-16T08:41:54.280Z,3.78
2017-12-16T08:44:21.687Z,3.73
2017-12-16T08:46:49.100Z,3.75
2017-12-16T08:49:16.633Z,3.80
2017-12-16T08:51:44.047Z,3.91
2017-12-16T08:54:11.543Z,3.98
2017-12-16T08:56:38.982Z,3.92
2017-12-16T08:59:06.388Z,3.83
2017-12-16T09:01:33.884Z,3.73
2017-12-16T09:04:01.295Z,3.73
2017-12-16T09:06:28.707Z,3.70
2017-12-16T09:08:56.144Z,3.60
2017-12-16T09:11:23.556Z,3.62
2017-12-16T09:13:50.974Z,3.68
2017-12-16T09:16:18.392Z,3.72
2017-12-16T09:18:45.902Z,3.78
2017-12-16T09:21:13.366Z,3.72
2017-12-16T09:23:40.792Z,3.73
2017-12-16T09:26:08.288Z,3.73
2017-12-16T09:28:35.696Z,3.78
2017-12-16T09:31:03.302Z,3.83
2017-12-16T09:33:30.714Z,3.83
2017-12-16T09:35:58.132Z,3.79
2017-12-16T09:38:25.663Z,3.75
2017-12-16T09:40:53.119Z,3.88
2017-12-16T09:43:20.687Z,3.99
2017-12-16T09:45:48.148Z,4.13
2017-12-16T09:48:15.591Z,4.21
2017-12-16T09:50:43.104Z,4.14
2017-12-16T09:53:10.472Z,4.13
2017-12-16T09:55:37.875Z,4.20
2017-12-16T09:58:05.337Z,4.14
2017-12-16T10:00:32.776Z,4.12
2017-12-16T10:03:00.177Z,4.08
2017-12-16T10:05:27.636Z,4.07
2017-12-16T10:07:55.040Z,4.03
2017-12-16T10:10:22.473Z,3.93
2017-12-16T10:12:49.971Z,3.88
2017-12-16T10:15:17.390Z,3.89
2017-12-16T10:17:44.823Z,3.91
2017-12-16T10:20:12.251Z,3.95
2017-12-16T10:22:39.660Z,3.93
2017-12-16T10:25:07.124Z,3.92
2017-12-16T10:27:34.568Z,3.97
2017-12-16T10:30:01.979Z,3.95
2017-12-16T10:32:29.402Z,3.92
2017-12-16T10:34:56.890Z,3.73
2017-12-16T10:37:24.299Z,3.68
2017-12-16T10:39:51.706Z,3.70
2017-12-16T10:42:19.153Z,3.64
2017-12-16T10:44:46.713Z,3.54
2017-12-16T10:47:14.150Z,3.50
2017-12-16T10:49:41.578Z,3.47
2017-12-16T10:52:08.993Z,3.40
2017-12-16T10:54:36.457Z,3.37
2017-12-16T10:57:03.907Z,3.24
2017-12-16T10:59:31.342Z,3.18
2017-12-16T11:01:58.912Z,3.16
2017-12-16T11:04:26.329Z,3.15
2017-12-16T11:06:53.935Z,3.18
2017-12-16T11:09:21.350Z,3.16
2017-12-16T11:11:48.979Z,3.17
2017-12-16T11:14:16.404Z,3.14
2017-12-16T11:16:43.865Z,3.15
2017-12-16T11:19:11.315Z,3.17
2017-12-16T11:21:38.800Z,3.14
2017-12-16T11:24:06.213Z,3.12
2017-12-16T11:26:33.701Z,3.11
2017-12-16T11:29:01.251Z,3.06
2017-12-16T11:31:28.716Z,3.13
2017-12-16T11:33:56.147Z,3.25
2017-12-16T11:36:23.559Z,3.29
2017-12-16T11:38:51.090Z,3.22
2017-12-16T11:41:18.512Z,3.15
2017-12-16T11:43:45.922Z,3.15
2017-12-16T11:46:13.378Z,3.12
2017-12-16T11:48:40.818Z,3.15
2017-12-16T11:51:08.227Z,3.14
2017-12-16T11:53:35.748Z,3.21
2017-12-16T11:56:03.242Z,3.23
2017-12-16T11:58:30.652Z,3.27
2017-12-16T12:00:58.112Z,3.31
2017-12-16T12:03:25.541Z,3.35
2017-12-16T12:05:52.947Z,3.38
2017-12-16T12:08:20.375Z,3.35
2017-12-16T12:10:47.794Z,3.45
2017-12-16T12:13:15.199Z,3.52
2017-12-16T12:15:42.654Z,3.61
2017-12-16T12:18:10.207Z,3.62
2017-12-16T12:20:37.680Z,3.64
2017-12-16T12:23:05.119Z,3.63
2017-12-16T12:25:32.528Z,3.56
2017-12-16T12:27:59.943Z,3.62
2017-12-16T12:30:27.395Z,3.57
2017-12-16T12:32:54.800Z,3.61
2017-12-16T12:35:22.215Z,3.61
2017-12-16T12:37:49.672Z,3.60
2017-12-16T12:40:17.124Z,3.57
2017-12-16T12:42:44.523Z,3.46
2017-12-16T12:45:11.965Z,3.37
2017-12-16T12:47:39.393Z,3.35
2017-12-16T12:50:06.797Z,3.32
2017-12-16T12:52:34.254Z,3.29
2017-12-16T12:55:01.671Z,3.26
2017-12-16T12:57:29.088Z,3.25
2017-12-16T12:59:56.589Z,3.19
2017-12-16T13:02:24.005Z,3.17
2017-12-16T13:04:51.411Z,3.10
2017-12-16T13:07:18.956Z,3.12
2017-12-16T13:09:46.403Z,3.17
2017-12-16T13:12:13.811Z,3.19
2017-12-16T13:14:41.240Z,3.16
2017-12-16T13:17:08.700Z,3.09
2017-12-16T13:19:36.145Z,3.07
2017-12-16T13:22:03.586Z,2.98
2017-12-16T13:24:31.044Z,2.96
2017-12-16T13:26:58.459Z,2.93
2017-12-16T13:29:25.958Z,2.91
2017-12-16T13:31:53.450Z,2.96
2017-12-16T13:34:20.824Z,3.02
2017-12-16T13:36:48.240Z,3.02
2017-12-16T13:39:15.675Z,3.03
2017-12-16T13:41:43.155Z,3.06
2017-12-16T13:44:10.617Z,3.06
2017-12-16T13:46:38.040Z,3.08
2017-12-16T13:49:05.525Z,3.10
2017-12-16T13:51:32.985Z,3.11
2017-12-16T13:54:00.489Z,3.11
2017-12-16T13:56:27.919Z,3.08
2017-12-16T13:58:55.344Z,3.06
2017-12-16T14:01:22.803Z,3.04
2017-12-16T14:03:50.268Z,3.03
2017-12-16T14:06:17.700Z,3.02
2017-12-16T14:08:45.173Z,3.02
2017-12-16T14:11:12.604Z,3.02
2017-12-16T14:13:40.099Z,3.02
2017-12-16T14:16:07.514Z,3.01
2017-12-16T14:18:35.011Z,3.04
2017-12-16T14:21:02.429Z,2.95
2017-12-16T14:23:29.849Z,2.95
2017-12-16T14:25:58.298Z,2.94
2017-12-16T14:28:25.702Z,2.95
2017-12-16T14:30:53.115Z,2.95
2017-12-16T14:33:20.576Z,2.94
2017-12-16T14:35:47.991Z,2.89
2017-12-16T14:38:15.404Z,2.90
2017-12-16T14:40:42.836Z,2.88
2017-12-16T14:43:10.252Z,2.90
2017-12-16T14:45:37.693Z,2.91
2017-12-16T14:48:05.135Z,2.88
2017-12-16T14:50:32.615Z,2.86
2017-12-16T14:53:00.023Z,2.86
2017-12-16T14:55:27.448Z,2.85
2017-12-16T14:57:54.944Z,2.83
2017-12-16T15:00:22.385Z,2.83
2017-12-16T15:02:49.791Z,2.82
2017-12-16T15:05:17.212Z,2.83
2017-12-16T15:07:44.689Z,2.85
2017-12-16T15:10:12.179Z,2.84
2017-12-16T15:12:39.652Z,2.85
2017-12-16T15:15:07.092Z,2.85
2017-12-16T15:17:34.504Z,2.84
2017-12-16T15:20:01.968Z,2.85
2017-12-16T15:22:29.417Z,2.85
2017-12-16T15:24:56.827Z,2.92
2017-12-16T15:27:24.251Z,2.92
2017-12-16T15:29:51.784Z,2.92
2017-12-16T15:32:19.198Z,2.91
2017-12-16T15:34:46.614Z,2.89
2017-12-16T15:37:14.041Z,2.86
2017-12-16T15:39:41.448Z,2.84
2017-12-16T15:42:08.870Z,2.81
2017-12-16T15:44:36.344Z,2.83
2017-12-16T15:47:03.891Z,2.85
2017-12-16T15:49:31.296Z,2.85
2017-12-16T15:51:58.801Z,2.88
2017-12-16T15:57:00.144Z,2.89
2017-12-16T15:59:27.563Z,2.86
2017-12-16T16:01:54.987Z,2.87
2017-12-16T16:04:22.438Z,2.93
2017-12-16T16:06:49.855Z,2.95
2017-12-16T16:09:17.267Z,2.98
2017-12-16T16:11:44.723Z,2.98
2017-12-16T16:14:12.177Z,3.02
2017-12-16T16:16:39.596Z,3.07
2017-12-16T16:19:07.011Z,3.14
2017-12-16T16:21:34.537Z,3.14
2017-12-16T16:24:01.943Z,3.16
2017-12-16T16:26:29.360Z,3.16
2017-12-16T16:28:56.783Z,3.15
2017-12-16T16:31:24.281Z,3.12
2017-12-16T16:33:51.731Z,3.14
2017-12-16T16:36:19.176Z,3.21
2017-12-16T16:38:46.586Z,3.23
2017-12-16T16:41:14.003Z,3.27
2017-12-16T16:43:41.660Z,3.22
2017-12-16T16:46:09.101Z,3.15
2017-12-16T16:48:36.502Z,3.12
2017-12-16T16:51:04.032Z,3.06
2017-12-16T16:53:31.460Z,3.12
2017-12-16T16:55:58.868Z,3.06
2017-12-16T16:58:26.301Z,3.05
2017-12-16T17:00:53.713Z,3.09
2017-12-16T17:03:21.124Z,3.11
2017-12-16T17:05:48.552Z,3.13
2017-12-16T17:08:15.968Z,3.14
2017-12-16T17:10:43.395Z,3.15
2017-12-16T17:13:10.850Z,3.15
2017-12-16T17:15:38.250Z,3.15
2017-12-16T17:18:05.656Z,3.25
2017-12-16T17:20:33.119Z,3.23
2017-12-16T17:23:00.529Z,3.18
2017-12-16T17:25:27.952Z,3.15
2017-12-16T17:27:55.466Z,3.14
2017-12-16T17:30:22.871Z,3.14
2017-12-16T17:32:50.394Z,3.12
2017-12-16T17:35:17.850Z,3.12
2017-12-16T17:37:45.410Z,3.12
2017-12-16T17:40:13.378Z,3.18
2017-12-16T17:42:40.835Z,3.21
2017-12-16T17:45:08.252Z,3.22
2017-12-16T17:47:35.756Z,3.23
2017-12-16T17:50:03.236Z,3.22
2017-12-16T17:52:30.662Z,3.21
2017-12-16T17:54:58.100Z,3.21
2017-12-16T17:57:25.547Z,3.19
2017-12-16T17:59:52.971Z,3.27
2017-12-16T18:02:20.800Z,3.40
2017-12-16T18:04:48.260Z,3.46
2017-12-16T18:07:15.664Z,3.38
2017-12-16T18:09:43.181Z,3.33
2017-12-16T18:12:10.638Z,3.27
2017-12-16T18:14:38.291Z,3.26
2017-12-16T18:17:05.724Z,3.25
2017-12-16T18:19:33.510Z,3.23
2017-12-16T18:22:01.200Z,3.19
2017-12-16T18:24:28.937Z,3.17
2017-12-16T18:26:56.598Z,3.14
2017-12-16T18:29:24.448Z,3.09
2017-12-16T18:31:52.049Z,3.11
2017-12-16T18:34:19.994Z,3.11
2017-12-16T18:36:47.967Z,3.07
2017-12-16T18:39:16.163Z,3.09
2017-12-16T18:41:44.005Z,3.08
2017-12-16T18:44:11.728Z,3.12
2017-12-16T18:46:39.152Z,3.16
2017-12-16T18:49:06.577Z,3.16
2017-12-16T18:51:33.999Z,3.12
2017-12-16T18:54:01.648Z,3.08
2017-12-16T18:56:29.264Z,3.08
2017-12-16T18:58:56.932Z,3.09
2017-12-16T19:01:24.696Z,3.11
2017-12-16T19:03:52.139Z,3.11
2017-12-16T19:06:19.583Z,3.12
2017-12-16T19:08:47.033Z,3.12
2017-12-16T19:11:14.606Z,3.12
2017-12-16T19:13:42.292Z,3.12
2017-12-16T19:16:09.863Z,3.14
2017-12-16T19:18:37.324Z,3.16
2017-12-16T19:21:05.076Z,3.18
2017-12-16T19:23:32.642Z,3.09
2017-12-16T19:26:00.537Z,3.01
2017-12-16T19:28:27.915Z,2.96
2017-12-16T19:30:55.331Z,2.93
2017-12-16T19:33:22.748Z,2.95
2017-12-16T19:35:50.199Z,2.99
2017-12-16T19:38:17.611Z,3.01
2017-12-16T19:40:45.174Z,3.04
2017-12-16T19:43:13.116Z,3.04
2017-12-16T19:45:40.543Z,3.09
2017-12-16T19:48:08.133Z,3.14
2017-12-16T19:50:35.914Z,3.16
2017-12-16T19:53:03.582Z,3.15
2017-12-16T19:55:31.160Z,3.14
2017-12-16T19:57:58.812Z,3.09
2017-12-16T20:00:26.241Z,3.06
2017-12-16T20:02:53.703Z,3.06
2017-12-16T20:05:21.447Z,3.05
2017-12-16T20:07:49.566Z,3.04
2017-12-16T20:10:17.093Z,2.99
2017-12-16T20:12:45.405Z,2.89
2017-12-16T20:15:13.220Z,2.82
2017-12-16T20:17:41.030Z,2.80
2017-12-16T20:20:08.781Z,2.78
2017-12-16T20:22:36.277Z,2.75
2017-12-16T20:25:03.775Z,2.69
2017-12-16T20:27:31.463Z,2.68
2017-12-16T20:29:59.166Z,2.65
2017-12-16T20:32:27.159Z,2.60
2017-12-16T20:34:54.895Z,2.58
2017-12-16T20:37:22.915Z,2.56
2017-12-16T20:39:50.729Z,2.57
2017-12-16T20:42:18.344Z,2.58
2017-12-16T20:44:46.155Z,2.55
2017-12-16T20:47:13.822Z,2.52
2017-12-16T20:49:41.695Z,2.58
2017-12-16T20:52:09.607Z,2.56
2017-12-16T20:54:37.407Z,2.54
2017-12-16T20:57:05.040Z,2.49
2017-12-16T20:59:32.623Z,2.47
2017-12-16T21:02:00.412Z,2.44
2017-12-16T21:04:27.988Z,2.44
2017-12-16T21:06:55.771Z,2.45
2017-12-16T21:09:23.626Z,2.42
2017-12-16T21:11:51.235Z,2.38
2017-12-16T21:14:19.020Z,2.40
2017-12-16T21:16:46.429Z,2.41
2017-12-16T21:19:13.883Z,2.44
2017-12-16T21:21:41.340Z,2.53
2017-12-16T21:24:08.760Z,2.61
2017-12-16T21:26:36.216Z,2.72
2017-12-16T21:29:03.637Z,2.78
2017-12-16T21:31:31.064Z,2.83
2017-12-16T21:33:58.504Z,2.85
2017-12-16T21:36:25.994Z,2.84
2017-12-16T21:38:53.420Z,2.81
2017-12-16T21:41:20.994Z,2.84
2017-12-16T21:43:48.398Z,2.85
2017-12-16T21:46:15.811Z,2.82
2017-12-16T21:48:43.251Z,2.83
2017-12-16T21:51:10.658Z,2.86
2017-12-16T21:53:38.069Z,2.90
2017-12-16T21:56:05.531Z,2.91
2017-12-16T21:58:32.987Z,3.01
2017-12-16T22:01:00.395Z,3.04
2017-12-16T22:03:27.832Z,3.06
2017-12-16T22:05:55.243Z,3.05
2017-12-16T22:08:22.660Z,3.08
2017-12-16T22:10:50.115Z,3.14
2017-12-16T22:13:17.542Z,3.17
2017-12-16T22:15:44.951Z,3.18
2017-12-16T22:18:12.387Z,3.17
2017-12-16T22:20:39.803Z,3.18
2017-12-16T22:23:07.275Z,3.20
2017-12-16T22:25:34.708Z,3.20
2017-12-16T22:28:02.178Z,3.23
2017-12-16T22:30:29.589Z,3.25
2017-12-16T22:32:57.056Z,3.29
2017-12-16T22:35:24.474Z,3.30
2017-12-16T22:37:51.891Z,3.35
2017-12-16T22:40:19.359Z,3.38
2017-12-16T22:42:46.784Z,3.42
2017-12-16T22:45:14.223Z,3.42
2017-12-16T22:47:41.731Z,3.46
2017-12-16T22:50:09.155Z,3.50
2017-12-16T22:52:36.560Z,3.50
2017-12-16T22:55:03.995Z,3.53
2017-12-16T22:57:31.401Z,3.54
2017-12-16T22:59:58.823Z,3.55
2017-12-16T23:02:26.279Z,3.56
2017-12-16T23:04:53.735Z,3.56
2017-12-16T23:07:21.174Z,3.57
2017-12-16T23:09:48.588Z,3.58
2017-12-16T23:12:15.995Z,3.57
2017-12-16T23:14:43.431Z,3.53
2017-12-16T23:17:10.912Z,3.52
2017-12-16T23:19:38.327Z,3.50
2017-12-16T23:22:05.775Z,3.54
2017-12-16T23:24:33.184Z,3.57
2017-12-16T23:27:00.623Z,3.60
2017-12-16T23:29:28.071Z,3.58
2017-12-16T23:31:55.551Z,3.58
2017-12-16T23:34:22.972Z,3.58
2017-12-16T23:36:50.469Z,3.57
2017-12-16T23:39:17.893Z,3.54
2017-12-16T23:41:45.370Z,3.53
2017-12-16T23:44:12.788Z,3.50
2017-12-16T23:46:40.315Z,3.47
2017-12-16T23:49:07.763Z,3.43
2017-12-16T23:51:35.171Z,3.38
2017-12-16T23:54:02.591Z,3.39
2017-12-16T23:56:30.087Z,3.40
2017-12-16T23:58:57.504Z,3.42
